createdAt,value
2022-12-29T00:01:11.656Z,100.00
2022-12-29T00:03:39.783Z,100.00
2022-12-29T00:06:07.831Z,100.00
2022-12-29T00:08:41.599Z,100.00
2022-12-29T00:11:13.764Z,100.00
2022-12-29T00:13:59.984Z,100.00
2022-12-29T00:16:29.058Z,100.00
2022-12-29T00:18:57.072Z,100.00
2022-12-29T00:21:43.796Z,100.00
2022-12-29T00:24:32.721Z,100.00
2022-12-29T00:27:31.119Z,100.00
2022-12-29T00:30:28.518Z,100.00
2022-12-29T00:33:14.366Z,100.00
2022-12-29T00:35:46.673Z,100.00
2022-12-29T00:38:33.697Z,100.00
2022-12-29T00:41:19.039Z,100.00
2022-12-29T00:44:05.889Z,100.00
2022-12-29T00:46:33.967Z,100.00
2022-12-29T00:49:19.747Z,100.00
2022-12-29T00:51:48.222Z,100.00
2022-12-29T00:54:16.999Z,100.00
2022-12-29T00:56:48.268Z,100.00
2022-12-29T00:59:20.642Z,100.00
2022-12-29T01:01:49.165Z,100.00
2022-12-29T01:04:17.341Z,100.00
2022-12-29T01:06:46.745Z,100.00
2022-12-29T01:09:35.826Z,100.00
2022-12-29T01:12:04.456Z,100.00
2022-12-29T01:14:33.942Z,100.00
2022-12-29T01:17:01.915Z,100.00
2022-12-29T01:19:29.979Z,100.00
2022-12-29T01:21:58.090Z,100.00
2022-12-29T01:24:27.110Z,100.00
2022-12-29T01:26:55.567Z,100.00
2022-12-29T01:29:23.936Z,100.00
2022-12-29T01:31:53.220Z,100.00
2022-12-29T01:34:21.198Z,100.00
2022-12-29T01:36:49.125Z,100.00
2022-12-29T01:39:17.542Z,100.00
2022-12-29T01:41:45.473Z,100.00
2022-12-29T01:44:49.447Z,100.00
2022-12-29T01:47:26.919Z,100.00
2022-12-29T01:49:56.736Z,100.00
2022-12-29T01:52:26.454Z,100.00
2022-12-29T01:54:57.186Z,100.00
2022-12-29T01:57:30.233Z,100.00
2022-12-29T02:00:02.653Z,100.00
2022-12-29T02:02:44.425Z,100.00
2022-12-29T02:05:18.040Z,100.00
2022-12-29T02:07:48.817Z,100.00
2022-12-29T02:10:17.779Z,100.00
2022-12-29T02:12:47.826Z,100.00
2022-12-29T02:15:17.091Z,100.00
2022-12-29T02:18:05.431Z,100.00
2022-12-29T02:21:12.176Z,100.00
2022-12-29T02:24:09.019Z,100.00
2022-12-29T02:27:08.882Z,100.00
2022-12-29T02:30:04.490Z,100.00
2022-12-29T02:32:44.862Z,100.00
2022-12-29T02:35:23.146Z,100.00
2022-12-29T02:38:06.301Z,100.00
2022-12-29T02:40:43.367Z,100.00
2022-12-29T02:43:24.186Z,100.00
2022-12-29T02:46:00.856Z,100.00
2022-12-29T02:48:34.961Z,100.00
2022-12-29T02:51:05.331Z,100.00
2022-12-29T02:53:54.281Z,100.00
2022-12-29T02:56:34.476Z,100.00
2022-12-29T02:59:03.546Z,100.00
2022-12-29T03:02:02.688Z,100.00
2022-12-29T03:04:48.578Z,100.00
2022-12-29T03:07:27.335Z,100.00
2022-12-29T03:10:03.439Z,100.00
2022-12-29T03:12:51.815Z,100.00
2022-12-29T03:15:42.717Z,100.00
2022-12-29T03:18:17.528Z,100.00
2022-12-29T03:20:54.873Z,100.00
2022-12-29T03:23:26.761Z,99.40
2022-12-29T03:25:59.301Z,99.95
2022-12-29T03:28:35.424Z,98.49
2022-12-29T03:31:09.840Z,98.51
2022-12-29T03:33:41.901Z,97.87
2022-12-29T03:36:17.971Z,98.80
2022-12-29T03:38:52.421Z,98.15
2022-12-29T03:41:43.357Z,97.51
2022-12-29T03:44:12.490Z,97.21
2022-12-29T03:46:46.319Z,97.23
2022-12-29T03:49:16.439Z,97.49
2022-12-29T03:51:51.642Z,98.13
2022-12-29T03:54:20.814Z,98.74
2022-12-29T03:57:11.834Z,98.38
2022-12-29T03:59:50.062Z,98.96
2022-12-29T04:02:20.936Z,98.74
2022-12-29T04:04:49.198Z,99.05
2022-12-29T04:07:24.090Z,97.86
2022-12-29T04:09:55.002Z,97.97
2022-12-29T04:12:25.798Z,97.94
2022-12-29T04:14:54.643Z,98.36
2022-12-29T04:17:22.955Z,98.92
2022-12-29T04:20:16.827Z,98.60
2022-12-29T04:22:49.511Z,99.68
2022-12-29T04:25:18.018Z,99.10
2022-12-29T04:27:58.571Z,99.16
2022-12-29T04:30:46.441Z,98.55
2022-12-29T04:33:23.710Z,98.77
2022-12-29T04:35:55.865Z,98.76
2022-12-29T04:38:27.465Z,100.00
2022-12-29T04:40:56.681Z,98.69
2022-12-29T04:43:25.761Z,98.78
2022-12-29T04:46:12.941Z,98.94
2022-12-29T04:48:51.518Z,99.11
2022-12-29T04:51:41.222Z,99.63
2022-12-29T04:54:15.870Z,99.57
2022-12-29T04:56:48.767Z,100.00
2022-12-29T04:59:18.872Z,99.25
2022-12-29T05:01:52.926Z,99.25
2022-12-29T05:04:21.192Z,98.74
2022-12-29T05:06:49.527Z,98.54
2022-12-29T05:09:20.410Z,98.90
2022-12-29T05:11:49.074Z,98.91
2022-12-29T05:14:23.386Z,98.84
2022-12-29T05:16:51.802Z,99.01
2022-12-29T05:19:20.487Z,98.60
2022-12-29T05:21:48.960Z,99.07
2022-12-29T05:24:17.943Z,98.32
2022-12-29T05:26:48.314Z,98.56
2022-12-29T05:29:48.481Z,98.20
2022-12-29T05:32:20.052Z,99.31
2022-12-29T05:34:48.531Z,99.01
2022-12-29T05:37:16.794Z,99.09
2022-12-29T05:39:49.928Z,98.99
2022-12-29T05:42:23.878Z,98.89
2022-12-29T05:44:56.545Z,99.19
2022-12-29T05:47:56.945Z,99.11
2022-12-29T05:50:40.324Z,98.25
2022-12-29T05:53:13.454Z,98.77
2022-12-29T05:55:48.478Z,98.20
2022-12-29T05:58:19.239Z,97.16
2022-12-29T06:00:51.271Z,98.26
2022-12-29T06:03:21.513Z,97.53
2022-12-29T06:05:49.741Z,97.52
2022-12-29T06:08:18.573Z,97.84
2022-12-29T06:10:46.697Z,97.69
2022-12-29T06:13:15.519Z,97.81
2022-12-29T06:15:52.162Z,97.65
2022-12-29T06:18:20.843Z,97.68
2022-12-29T06:20:49.521Z,97.65
2022-12-29T06:23:20.373Z,98.58
2022-12-29T06:25:49.605Z,98.66
2022-12-29T06:28:18.465Z,98.64
2022-12-29T06:30:48.915Z,99.17
2022-12-29T06:33:17.593Z,99.19
2022-12-29T06:35:46.705Z,98.45
2022-12-29T06:38:16.163Z,98.67
2022-12-29T06:40:45.893Z,99.09
2022-12-29T06:43:40.022Z,99.51
2022-12-29T06:46:39.326Z,99.35
2022-12-29T06:49:07.190Z,99.12
2022-12-29T06:51:35.168Z,99.80
2022-12-29T06:54:03.092Z,99.48
2022-12-29T06:56:31.052Z,99.84
2022-12-29T06:59:00.989Z,98.55
2022-12-29T07:01:29.115Z,99.31
2022-12-29T07:03:58.598Z,99.15
2022-12-29T07:06:26.467Z,98.87
2022-12-29T07:08:56.022Z,98.72
2022-12-29T07:11:24.090Z,99.52
2022-12-29T07:13:52.818Z,99.62
2022-12-29T07:16:21.138Z,99.55
2022-12-29T07:18:49.125Z,100.00
2022-12-29T07:21:18.391Z,99.84
2022-12-29T07:23:46.294Z,100.00
2022-12-29T07:26:15.923Z,100.00
2022-12-29T07:28:43.839Z,99.29
2022-12-29T07:31:33.073Z,99.20
2022-12-29T07:34:00.981Z,99.08
2022-12-29T07:36:34.444Z,99.37
2022-12-29T07:39:03.005Z,99.40
2022-12-29T07:41:31.048Z,98.97
2022-12-29T07:44:00.118Z,99.18
2022-12-29T07:46:55.112Z,99.26
2022-12-29T07:49:21.787Z,100.00
2022-12-29T07:51:51.064Z,100.00
2022-12-29T07:54:20.079Z,99.49
2022-12-29T07:56:48.128Z,99.23
2022-12-29T07:59:16.120Z,99.37
2022-12-29T08:01:44.131Z,99.77
2022-12-29T08:04:12.261Z,100.00
2022-12-29T08:06:40.481Z,99.72
2022-12-29T08:09:15.163Z,99.59
2022-12-29T08:11:50.709Z,99.27
2022-12-29T08:14:19.208Z,98.44
2022-12-29T08:16:47.222Z,98.19
2022-12-29T08:19:15.507Z,98.46
2022-12-29T08:21:43.489Z,98.67
2022-12-29T08:24:12.822Z,98.80
2022-12-29T08:26:40.732Z,98.76
2022-12-29T08:29:08.702Z,98.77
2022-12-29T08:31:36.882Z,98.78
2022-12-29T08:34:07.547Z,98.06
2022-12-29T08:36:35.467Z,99.15
2022-12-29T08:39:03.444Z,98.97
2022-12-29T08:41:32.742Z,97.93
2022-12-29T08:44:01.330Z,98.23
2022-12-29T08:46:29.236Z,98.43
2022-12-29T08:48:57.201Z,98.75
2022-12-29T08:51:25.488Z,99.06
2022-12-29T08:53:53.984Z,98.70
2022-12-29T08:56:24.550Z,98.86
2022-12-29T08:58:57.484Z,98.96
2022-12-29T09:01:26.272Z,99.17
2022-12-29T09:06:49.201Z,98.63
2022-12-29T09:09:37.610Z,97.77
2022-12-29T09:12:06.469Z,98.83
2022-12-29T09:14:36.060Z,98.65
2022-12-29T09:17:21.353Z,98.43
2022-12-29T09:19:49.323Z,98.65
2022-12-29T09:22:17.287Z,98.06
2022-12-29T09:24:45.264Z,97.53
2022-12-29T09:27:13.309Z,97.51
2022-12-29T09:29:42.620Z,96.89
2022-12-29T09:32:13.938Z,96.71
2022-12-29T09:34:45.084Z,95.88
2022-12-29T09:37:13.006Z,95.78
2022-12-29T09:39:41.486Z,96.70
2022-12-29T09:42:17.971Z,96.53
2022-12-29T09:44:57.601Z,96.26
2022-12-29T09:47:27.195Z,96.53
2022-12-29T09:49:58.773Z,97.09
2022-12-29T09:52:32.672Z,96.02
2022-12-29T09:55:12.036Z,95.81
2022-12-29T09:57:47.454Z,94.78
2022-12-29T10:00:19.512Z,94.20
2022-12-29T10:02:52.734Z,93.61
2022-12-29T10:05:34.033Z,93.17
2022-12-29T10:08:17.875Z,93.37
2022-12-29T10:10:52.789Z,93.36
2022-12-29T10:13:34.338Z,93.26
2022-12-29T10:16:11.083Z,92.39
2022-12-29T10:19:07.030Z,92.71
2022-12-29T10:21:49.738Z,92.62
2022-12-29T10:24:20.819Z,92.54
2022-12-29T10:26:50.462Z,92.24
2022-12-29T10:29:21.562Z,91.91
2022-12-29T10:31:58.266Z,91.59
2022-12-29T10:34:30.578Z,91.72
2022-12-29T10:37:04.877Z,91.17
2022-12-29T10:39:35.008Z,90.77
2022-12-29T10:42:12.029Z,90.06
2022-12-29T10:44:40.400Z,89.75
2022-12-29T10:47:17.613Z,89.06
2022-12-29T10:49:48.768Z,88.95
2022-12-29T10:52:18.821Z,88.54
2022-12-29T10:54:51.625Z,88.29
2022-12-29T10:57:27.784Z,88.44
2022-12-29T10:59:55.704Z,88.30
2022-12-29T11:02:55.663Z,88.47
2022-12-29T11:05:32.003Z,87.50
2022-12-29T11:08:03.913Z,87.60
2022-12-29T11:10:38.006Z,87.17
2022-12-29T11:13:13.719Z,87.08
2022-12-29T11:15:44.463Z,86.93
2022-12-29T11:18:37.957Z,87.01
2022-12-29T11:21:08.636Z,87.62
2022-12-29T11:23:39.059Z,88.28
2022-12-29T11:26:17.190Z,88.49
2022-12-29T11:28:47.727Z,89.26
2022-12-29T11:31:19.276Z,89.36
2022-12-29T11:33:48.719Z,90.35
2022-12-29T11:36:22.270Z,91.78
2022-12-29T11:38:53.008Z,92.99
2022-12-29T11:41:24.614Z,95.12
2022-12-29T11:43:54.183Z,97.24
2022-12-29T11:46:26.432Z,98.60
2022-12-29T11:48:59.483Z,99.60
2022-12-29T11:51:33.991Z,100.00
2022-12-29T11:54:05.455Z,99.47
2022-12-29T11:56:40.714Z,99.20
2022-12-29T11:59:43.686Z,100.00
2022-12-29T12:02:42.180Z,100.00
2022-12-29T12:05:28.590Z,100.00
2022-12-29T12:08:01.644Z,100.00
2022-12-29T12:10:33.771Z,100.00
2022-12-29T12:13:08.041Z,100.00
2022-12-29T12:15:46.028Z,100.00
2022-12-29T12:18:20.795Z,100.00
2022-12-29T12:20:56.394Z,100.00
2022-12-29T12:23:38.571Z,100.00
2022-12-29T12:26:13.873Z,100.00
2022-12-29T12:28:50.417Z,100.00
2022-12-29T12:31:25.862Z,100.00
2022-12-29T12:34:00.000Z,100.00
2022-12-29T12:36:47.299Z,100.00
2022-12-29T12:39:27.981Z,100.00
2022-12-29T12:42:15.790Z,100.00
2022-12-29T12:44:53.880Z,100.00
2022-12-29T12:47:39.083Z,100.00
2022-12-29T12:50:34.067Z,100.00
2022-12-29T12:53:21.385Z,100.00
2022-12-29T12:56:09.799Z,100.00
2022-12-29T12:58:49.401Z,100.00
2022-12-29T13:01:31.701Z,100.00
2022-12-29T13:04:15.939Z,100.00
2022-12-29T13:06:53.605Z,100.00
2022-12-29T13:09:39.109Z,100.00
2022-12-29T13:12:19.412Z,100.00
2022-12-29T13:15:00.759Z,100.00
2022-12-29T13:17:37.320Z,100.00
2022-12-29T13:20:21.376Z,100.00
2022-12-29T13:22:56.076Z,100.00
2022-12-29T13:25:34.571Z,100.00
2022-12-29T13:28:11.707Z,100.00
2022-12-29T13:30:52.862Z,100.00
2022-12-29T13:33:27.293Z,100.00
2022-12-29T13:35:58.355Z,100.00
2022-12-29T13:38:31.647Z,100.00
2022-12-29T13:41:07.803Z,100.00
2022-12-29T13:43:40.481Z,100.00
2022-12-29T13:46:11.699Z,100.00
2022-12-29T13:48:48.092Z,100.00
2022-12-29T13:51:21.434Z,100.00
2022-12-29T13:54:07.513Z,100.00
2022-12-29T13:56:42.456Z,100.00
2022-12-29T13:59:25.324Z,100.00
2022-12-29T14:02:01.052Z,100.00
2022-12-29T14:04:34.023Z,100.00
2022-12-29T14:07:05.117Z,100.00
2022-12-29T14:09:47.319Z,100.00
2022-12-29T14:12:32.375Z,100.00
2022-12-29T14:15:16.315Z,100.00
2022-12-29T14:18:05.860Z,100.00
2022-12-29T14:20:34.935Z,100.00
2022-12-29T14:23:17.728Z,100.00
2022-12-29T14:25:58.631Z,100.00
2022-12-29T14:28:29.712Z,100.00
2022-12-29T14:30:59.037Z,100.00
2022-12-29T14:33:29.709Z,100.00
2022-12-29T14:35:59.097Z,100.00
2022-12-29T14:38:29.937Z,100.00
2022-12-29T14:41:28.260Z,100.00
2022-12-29T14:44:00.672Z,100.00
2022-12-29T14:46:57.675Z,100.00
2022-12-29T14:49:29.581Z,100.00
2022-12-29T14:52:08.331Z,100.00
2022-12-29T14:54:57.283Z,100.00
2022-12-29T14:57:35.338Z,100.00
2022-12-29T15:00:10.681Z,100.00
2022-12-29T15:02:43.328Z,100.00
2022-12-29T15:05:35.860Z,100.00
2022-12-29T15:08:05.193Z,100.00
2022-12-29T15:10:39.252Z,100.00
2022-12-29T15:13:16.911Z,100.00
2022-12-29T15:15:46.427Z,100.00
2022-12-29T15:18:23.139Z,100.00
2022-12-29T15:20:54.024Z,100.00
2022-12-29T15:23:22.157Z,100.00
2022-12-29T15:25:54.117Z,100.00
2022-12-29T15:28:23.563Z,100.00
2022-12-29T15:31:05.475Z,100.00
2022-12-29T15:33:39.121Z,100.00
2022-12-29T15:36:13.661Z,100.00
2022-12-29T15:38:41.839Z,100.00
2022-12-29T15:41:25.204Z,100.00
2022-12-29T15:44:02.301Z,100.00
2022-12-29T15:46:33.818Z,100.00
2022-12-29T15:49:02.210Z,100.00
2022-12-29T15:51:33.332Z,100.00
2022-12-29T15:54:01.510Z,100.00
2022-12-29T15:56:31.842Z,100.00
2022-12-29T15:59:00.207Z,100.00
2022-12-29T16:01:35.290Z,100.00
2022-12-29T16:04:09.641Z,100.00
2022-12-29T16:06:39.609Z,100.00
2022-12-29T16:09:15.698Z,100.00
2022-12-29T16:11:46.450Z,100.00
2022-12-29T16:14:19.098Z,100.00
2022-12-29T16:16:49.952Z,100.00
2022-12-29T16:19:25.431Z,100.00
2022-12-29T16:21:53.776Z,100.00
2022-12-29T16:24:25.414Z,100.00
2022-12-29T16:27:01.478Z,100.00
2022-12-29T16:29:31.858Z,100.00
2022-12-29T16:32:03.908Z,100.00
2022-12-29T16:34:35.201Z,100.00
2022-12-29T16:37:04.785Z,100.00
2022-12-29T16:39:35.213Z,100.00
2022-12-29T16:42:23.855Z,100.00
2022-12-29T16:45:06.081Z,100.00
2022-12-29T16:47:34.252Z,98.97
2022-12-29T16:50:15.542Z,98.62
2022-12-29T16:52:43.636Z,98.72
2022-12-29T16:55:18.928Z,97.15
2022-12-29T16:57:49.119Z,96.80
2022-12-29T17:00:21.863Z,96.64
2022-12-29T17:02:51.136Z,96.44
2022-12-29T17:05:21.050Z,96.64
2022-12-29T17:07:49.386Z,96.35
2022-12-29T17:10:19.855Z,94.55
2022-12-29T17:12:50.418Z,95.08
2022-12-29T17:15:26.871Z,95.04
2022-12-29T17:17:57.351Z,93.54
2022-12-29T17:20:29.579Z,93.35
2022-12-29T17:22:58.822Z,92.39
2022-12-29T17:25:31.451Z,93.09
2022-12-29T17:28:01.630Z,91.77
2022-12-29T17:30:34.079Z,91.77
2022-12-29T17:33:05.502Z,90.30
2022-12-29T17:35:35.287Z,89.63
2022-12-29T17:38:03.548Z,88.84
2022-12-29T17:40:34.474Z,88.64
2022-12-29T17:43:02.487Z,87.86
2022-12-29T17:45:32.130Z,88.00
2022-12-29T17:48:01.871Z,88.59
2022-12-29T17:50:32.539Z,88.70
2022-12-29T17:53:05.268Z,90.33
2022-12-29T17:55:38.070Z,88.28
2022-12-29T17:58:18.162Z,88.46
2022-12-29T18:00:47.465Z,88.87
2022-12-29T18:03:17.526Z,88.46
2022-12-29T18:05:46.259Z,89.35
2022-12-29T18:08:15.650Z,89.28
2022-12-29T18:10:44.092Z,89.81
2022-12-29T18:13:22.552Z,89.41
2022-12-29T18:15:51.266Z,89.71
2022-12-29T18:18:20.875Z,90.39
2022-12-29T18:20:51.036Z,90.29
2022-12-29T18:23:23.321Z,90.66
2022-12-29T18:25:55.289Z,90.70
2022-12-29T18:28:25.006Z,92.28
2022-12-29T18:30:53.624Z,92.52
2022-12-29T18:33:26.232Z,92.77
2022-12-29T18:35:58.406Z,94.49
2022-12-29T18:38:28.381Z,94.15
2022-12-29T18:40:57.656Z,93.38
2022-12-29T18:43:26.023Z,93.70
2022-12-29T18:45:54.223Z,94.37
2022-12-29T18:48:22.808Z,93.73
2022-12-29T18:50:52.006Z,94.27
2022-12-29T18:53:22.056Z,94.99
2022-12-29T18:55:52.539Z,95.86
2022-12-29T18:58:20.908Z,94.54
2022-12-29T19:00:49.121Z,93.51
2022-12-29T19:03:19.385Z,93.35
2022-12-29T19:05:50.775Z,94.01
2022-12-29T19:08:18.937Z,94.24
2022-12-29T19:10:47.012Z,94.72
2022-12-29T19:13:19.493Z,95.23
2022-12-29T19:15:48.771Z,95.53
2022-12-29T19:21:09.701Z,95.42
2022-12-29T19:23:37.872Z,95.56
2022-12-29T19:26:18.582Z,97.27
2022-12-29T19:28:47.960Z,98.39
2022-12-29T19:31:16.059Z,98.93
2022-12-29T19:33:44.189Z,99.42
2022-12-29T19:36:15.472Z,99.24
2022-12-29T19:38:43.601Z,100.00
2022-12-29T19:41:12.109Z,100.00
2022-12-29T19:43:40.242Z,100.00
2022-12-29T19:46:12.674Z,100.00
2022-12-29T19:48:40.887Z,100.00
2022-12-29T19:51:11.086Z,100.00
2022-12-29T19:53:40.480Z,100.00
2022-12-29T19:56:09.847Z,100.00
2022-12-29T19:58:45.236Z,100.00
2022-12-29T20:01:18.643Z,100.00
2022-12-29T20:03:46.912Z,100.00
2022-12-29T20:06:15.624Z,100.00
2022-12-29T20:08:44.378Z,100.00
2022-12-29T20:11:14.413Z,100.00
2022-12-29T20:13:43.762Z,100.00
2022-12-29T20:16:14.657Z,100.00
2022-12-29T20:18:46.108Z,100.00
2022-12-29T20:21:16.922Z,100.00
2022-12-29T20:23:46.061Z,100.00
2022-12-29T20:26:16.402Z,100.00
2022-12-29T20:28:44.622Z,100.00
2022-12-29T20:31:18.899Z,100.00
2022-12-29T20:33:51.416Z,100.00
2022-12-29T20:36:22.818Z,100.00
2022-12-29T20:38:52.069Z,100.00
2022-12-29T20:41:21.245Z,100.00
2022-12-29T20:43:49.621Z,100.00
2022-12-29T20:46:21.426Z,100.00
2022-12-29T20:48:56.622Z,100.00
2022-12-29T20:51:28.473Z,100.00
2022-12-29T20:53:59.515Z,100.00
2022-12-29T20:56:29.111Z,99.86
2022-12-29T20:59:27.527Z,100.00
2022-12-29T21:01:51.249Z,100.00
2022-12-29T21:04:26.166Z,100.00
2022-12-29T21:06:59.900Z,99.59
2022-12-29T21:09:27.825Z,99.13
2022-12-29T21:12:02.463Z,99.44
2022-12-29T21:14:30.565Z,99.57
2022-12-29T21:16:59.977Z,99.69
2022-12-29T21:19:32.121Z,99.28
2022-12-29T21:22:00.038Z,99.74
2022-12-29T21:24:28.878Z,99.65
2022-12-29T21:26:56.860Z,99.49
2022-12-29T21:29:24.838Z,99.07
2022-12-29T21:31:52.737Z,98.95
2022-12-29T21:34:20.747Z,99.15
2022-12-29T21:36:50.198Z,99.39
2022-12-29T21:39:19.694Z,99.48
2022-12-29T21:41:47.927Z,99.32
2022-12-29T21:44:33.113Z,98.92
2022-12-29T21:47:01.565Z,97.81
2022-12-29T21:49:29.699Z,97.36
2022-12-29T21:51:59.070Z,97.70
2022-12-29T21:54:46.856Z,98.06
2022-12-29T21:57:37.711Z,98.20
2022-12-29T22:00:20.837Z,97.50
2022-12-29T22:03:06.473Z,98.25
2022-12-29T22:05:52.239Z,98.12
2022-12-29T22:08:38.924Z,97.27
2022-12-29T22:11:26.402Z,97.55
2022-12-29T22:13:55.965Z,97.89
2022-12-29T22:16:25.771Z,98.15
2022-12-29T22:18:54.148Z,97.21
2022-12-29T22:21:22.299Z,96.28
2022-12-29T22:23:51.625Z,94.87
2022-12-29T22:26:19.691Z,95.13
2022-12-29T22:28:47.979Z,94.84
2022-12-29T22:31:27.089Z,94.64
2022-12-29T22:33:56.471Z,94.22
2022-12-29T22:36:26.932Z,94.73
2022-12-29T22:38:56.333Z,94.74
2022-12-29T22:41:25.302Z,95.11
2022-12-29T22:43:53.432Z,95.01
2022-12-29T22:46:23.476Z,94.93
2022-12-29T22:48:51.497Z,95.19
2022-12-29T22:51:19.541Z,95.22
2022-12-29T22:53:49.798Z,95.03
2022-12-29T22:56:20.099Z,94.93
2022-12-29T22:58:49.436Z,94.95
2022-12-29T23:01:21.971Z,95.90
2022-12-29T23:03:50.301Z,96.24
2022-12-29T23:06:18.652Z,97.13
2022-12-29T23:08:47.916Z,97.19
2022-12-29T23:11:16.164Z,97.50
2022-12-29T23:13:46.082Z,98.06
2022-12-29T23:16:15.591Z,98.52
2022-12-29T23:18:44.281Z,99.21
2022-12-29T23:21:12.633Z,98.88
2022-12-29T23:23:56.347Z,99.52
2022-12-29T23:26:27.079Z,98.57
2022-12-29T23:29:00.167Z,99.45
2022-12-29T23:31:30.517Z,100.00
2022-12-29T23:33:59.663Z,100.00
2022-12-29T23:36:28.202Z,100.00
2022-12-29T23:38:56.816Z,100.00
2022-12-29T23:41:24.867Z,100.00
2022-12-29T23:43:52.867Z,100.00
2022-12-29T23:46:24.485Z,100.00
2022-12-29T23:48:52.847Z,100.00
2022-12-29T23:51:20.875Z,100.00
2022-12-29T23:53:48.981Z,100.00
2022-12-29T23:56:18.847Z,100.00
2022-12-29T23:58:46.877Z,100.00
